CheckWX is a tool to help pilots better visualize weather data.  It is not intended as a substitute for an official pre-flight weather briefing.

19:19:44 UTC

KJFK METAR
John F Kennedy International Airport
New York, New York, USA
Current

15 mins ago

KJFK 201905Z 16008KT 3SM BR FEW002 OVC006 23/23 A2953 RMK AO2 SFC VIS 6 T02330228
Observed
Jun-20 @ 19:05 UTC
Wind
  • 160° at 8 KTS
Visibility
3 SM
Flight Rules
IFR
Conditions
Mist
Cloud Levels
  • Few at 200' AGL
  • Overcast at 600' AGL
Temperature
23°C / 73°F
Dewpoint
23°C / 73°F
Humidity
100%
Altimeter
29.53" Hg
Pressure
1000.02 hPa
Previous

29 mins ago

KJFK 201851Z 16009KT 1SM R04R/P6000FT BR SCT000 OVC006 23/23 A2954 RMK AO2 TWR VIS 3 SLP001 BR SCT000 T02330228
Observed
Jun-20 @ 18:51 UTC
Wind
  • 160° at 9 KTS
Visibility
1 SM
Flight Rules
IFR
Conditions
Mist
Cloud Levels
  • Scattered
  • Overcast at 600' AGL
Temperature
23°C / 73°F
Dewpoint
23°C / 73°F
Humidity
100%
Altimeter
29.54" Hg
Pressure
1000.32 hPa
Previous

1 hour ago

KJFK 201751Z 16009KT 3SM BR FEW002 BKN005 BKN055 BKN250 24/23 A2956 RMK AO2 SFC VIS 4 SLP010 VIS SE-SW 1 1/2 60000 T02440233 10244 20200 58022
Observed
Jun-20 @ 17:51 UTC
Wind
  • 160° at 9 KTS
Visibility
3 SM
Flight Rules
IFR
Conditions
Mist
Cloud Levels
  • Few at 200' AGL
  • Broken at 500' AGL
  • Broken at 5,500' AGL
  • Broken at 25,000' AGL
Temperature
24°C / 75°F
Dewpoint
23°C / 73°F
Humidity
94%
Altimeter
29.56" Hg
Pressure
1001.02 hPa